createdAt,value
2019-03-10T00:00:49.228Z,27.70
2019-03-10T00:03:20.066Z,23.25
2019-03-10T00:05:50.021Z,35.80
2019-03-10T00:08:19.611Z,26.57
2019-03-10T00:10:48.811Z,18.82
2019-03-10T00:13:19.422Z,24.90
2019-03-10T00:15:48.676Z,26.42
2019-03-10T00:18:17.939Z,25.85
2019-03-10T00:20:48.693Z,31.07
2019-03-10T00:23:17.929Z,30.80
2019-03-10T00:25:48.273Z,22.87
2019-03-10T00:28:18.035Z,26.62
2019-03-10T00:30:47.319Z,31.33
2019-03-10T00:33:17.280Z,32.65
2019-03-10T00:35:48.160Z,27.52
2019-03-10T00:38:17.346Z,27.65
2019-03-10T00:41:09.681Z,31.87
2019-03-10T00:44:15.838Z,23.85
2019-03-10T00:47:22.089Z,37.85
2019-03-10T00:50:03.664Z,39.18
2019-03-10T00:52:42.015Z,31.97
2019-03-10T00:55:11.245Z,33.13
2019-03-10T00:57:40.428Z,32.70
2019-03-10T01:00:17.649Z,33.28
2019-03-10T01:02:46.851Z,27.85
2019-03-10T01:05:16.107Z,29.20
2019-03-10T01:07:45.380Z,33.83
2019-03-10T01:10:16.100Z,33.28
2019-03-10T01:12:45.547Z,43.78
2019-03-10T01:15:17.655Z,36.25
2019-03-10T01:17:47.072Z,38.50
2019-03-10T01:20:16.891Z,41.20
2019-03-10T01:22:46.147Z,36.20
2019-03-10T01:25:15.337Z,46.95
2019-03-10T01:27:44.646Z,40.33
2019-03-10T01:30:19.368Z,41.53
2019-03-10T01:33:24.087Z,49.73
2019-03-10T01:35:53.299Z,44.10
2019-03-10T01:38:22.479Z,43.20
2019-03-10T01:40:51.880Z,38.92
2019-03-10T01:43:21.084Z,43.70
2019-03-10T01:45:50.320Z,36.58
2019-03-10T01:48:19.614Z,43.10
2019-03-10T01:50:49.938Z,39.98
2019-03-10T01:53:25.482Z,40.37
2019-03-10T01:55:50.076Z,39.20
2019-03-10T01:58:19.408Z,43.58
2019-03-10T02:00:48.835Z,41.85
2019-03-10T02:03:18.020Z,41.02
2019-03-10T02:05:47.557Z,33.65
2019-03-10T02:08:16.915Z,39.08
2019-03-10T02:10:46.381Z,35.25
2019-03-10T02:13:15.623Z,37.90
2019-03-10T02:15:44.859Z,41.68
2019-03-10T02:18:14.199Z,34.90
2019-03-10T02:20:43.479Z,39.08
2019-03-10T02:23:12.747Z,37.48
2019-03-10T02:25:43.562Z,42.15
2019-03-10T02:28:12.820Z,42.25
2019-03-10T02:30:42.040Z,46.98
2019-03-10T02:33:11.293Z,45.92
2019-03-10T02:35:40.593Z,47.50
2019-03-10T02:38:09.781Z,39.80
2019-03-10T02:40:39.177Z,50.23
2019-03-10T02:43:08.429Z,46.20
2019-03-10T02:45:38.515Z,51.23
2019-03-10T02:48:08.752Z,49.45
2019-03-10T02:50:37.950Z,56.18
2019-03-10T02:53:07.374Z,55.70
2019-03-10T02:55:36.757Z,42.33
2019-03-10T02:58:06.085Z,37.30
2019-03-10T03:00:35.517Z,42.00
2019-03-10T03:03:05.038Z,54.23
2019-03-10T03:05:34.314Z,41.28
2019-03-10T03:08:03.573Z,44.10
2019-03-10T03:10:32.889Z,42.75
2019-03-10T03:13:02.114Z,44.53
2019-03-10T03:15:31.377Z,38.55
2019-03-10T03:18:00.548Z,45.10
2019-03-10T03:20:29.820Z,42.55
2019-03-10T03:22:58.987Z,45.48
2019-03-10T03:25:28.208Z,53.80
2019-03-10T03:27:57.481Z,48.80
2019-03-10T03:30:26.680Z,48.80
2019-03-10T03:32:55.889Z,48.10
2019-03-10T03:35:52.245Z,54.48
2019-03-10T03:38:33.558Z,46.20
2019-03-10T03:41:17.704Z,52.55
2019-03-10T03:43:46.917Z,52.85
2019-03-10T03:46:16.157Z,49.90
2019-03-10T03:48:45.785Z,39.55
2019-03-10T03:51:14.974Z,48.98
2019-03-10T03:53:44.229Z,54.33
2019-03-10T03:56:13.496Z,49.48
2019-03-10T03:58:42.729Z,52.13
2019-03-10T04:01:19.439Z,47.15
2019-03-10T04:03:48.611Z,41.58
2019-03-10T04:06:17.891Z,56.73
2019-03-10T04:08:47.085Z,48.50
2019-03-10T04:11:16.308Z,35.20
2019-03-10T04:13:45.602Z,42.08
2019-03-10T04:16:14.798Z,43.78
2019-03-10T04:18:44.031Z,39.45
2019-03-10T04:21:13.511Z,35.23
2019-03-10T04:23:42.719Z,45.03
2019-03-10T04:26:11.983Z,40.08
2019-03-10T04:28:41.196Z,43.98
2019-03-10T04:31:11.537Z,41.58
2019-03-10T04:33:40.847Z,40.58
2019-03-10T04:36:10.129Z,42.43
2019-03-10T04:38:42.385Z,43.35
2019-03-10T04:41:11.583Z,46.30
2019-03-10T04:43:40.814Z,45.52
2019-03-10T04:46:10.061Z,45.88
2019-03-10T04:48:39.293Z,39.88
2019-03-10T04:51:08.536Z,37.50
2019-03-10T04:53:37.801Z,47.27
2019-03-10T04:56:08.692Z,42.73
2019-03-10T04:58:39.515Z,45.05
2019-03-10T05:01:08.713Z,55.63
2019-03-10T05:03:37.946Z,47.93
2019-03-10T05:06:07.231Z,56.30
2019-03-10T05:08:37.522Z,52.78
2019-03-10T05:11:06.706Z,46.65
2019-03-10T05:13:35.960Z,60.60
2019-03-10T05:16:05.279Z,46.25
2019-03-10T05:18:34.567Z,64.20
2019-03-10T05:21:05.436Z,83.58
2019-03-10T05:23:37.270Z,62.93
2019-03-10T05:26:06.632Z,58.80
2019-03-10T05:28:38.782Z,64.95
2019-03-10T05:31:08.052Z,55.35
2019-03-10T05:33:37.270Z,55.65
2019-03-10T05:36:06.499Z,78.47
2019-03-10T05:38:35.707Z,61.37
2019-03-10T05:41:05.081Z,65.97
2019-03-10T05:43:34.279Z,68.35
2019-03-10T05:46:03.485Z,69.32
2019-03-10T05:48:32.687Z,76.65
2019-03-10T05:51:01.898Z,60.33
2019-03-10T05:53:31.161Z,68.25
2019-03-10T05:56:00.355Z,68.75
2019-03-10T05:58:29.590Z,86.67
2019-03-10T06:00:58.870Z,77.00
2019-03-10T06:03:28.288Z,83.15
2019-03-10T06:05:57.563Z,82.90
2019-03-10T06:08:26.904Z,90.67
2019-03-10T06:10:56.154Z,62.50
2019-03-10T06:13:25.345Z,84.28
2019-03-10T06:15:54.544Z,56.45
2019-03-10T06:18:23.792Z,63.35
2019-03-10T06:20:53.199Z,71.80
2019-03-10T06:23:22.391Z,74.17
2019-03-10T06:25:51.834Z,66.75
2019-03-10T06:28:21.081Z,64.90
2019-03-10T06:30:50.306Z,79.67
2019-03-10T06:33:19.525Z,65.37
2019-03-10T06:35:49.420Z,60.67
2019-03-10T06:38:18.785Z,56.58
2019-03-10T06:40:48.204Z,67.17
2019-03-10T06:43:17.629Z,56.45
2019-03-10T06:45:48.580Z,59.53
2019-03-10T06:48:19.413Z,56.68
2019-03-10T06:50:48.661Z,64.53
2019-03-10T06:53:17.920Z,55.88
2019-03-10T06:55:48.696Z,65.92
2019-03-10T06:58:17.987Z,45.20
2019-03-10T07:00:47.167Z,51.45
2019-03-10T07:03:16.383Z,54.40
2019-03-10T07:05:45.552Z,41.33
2019-03-10T07:08:14.891Z,55.10
2019-03-10T07:10:44.148Z,46.95
2019-03-10T07:13:13.343Z,47.03
2019-03-10T07:15:42.571Z,45.73
2019-03-10T07:18:11.791Z,47.70
2019-03-10T07:20:42.715Z,44.20
2019-03-10T07:23:14.869Z,50.00
2019-03-10T07:25:44.103Z,41.23
2019-03-10T07:28:15.097Z,42.78
2019-03-10T07:30:45.981Z,44.27
2019-03-10T07:33:26.188Z,38.05
2019-03-10T07:36:05.866Z,44.18
2019-03-10T07:38:53.207Z,36.38
2019-03-10T07:41:29.932Z,38.40
2019-03-10T07:44:06.531Z,40.12
2019-03-10T07:46:43.403Z,32.23
2019-03-10T07:49:23.141Z,21.95
2019-03-10T07:51:56.548Z,21.48
2019-03-10T07:54:30.186Z,31.52
2019-03-10T07:57:17.715Z,26.75
2019-03-10T08:00:05.012Z,39.67
2019-03-10T08:02:38.976Z,26.40
2019-03-10T08:05:09.789Z,24.95
2019-03-10T08:07:57.068Z,27.77
2019-03-10T08:10:33.809Z,25.62
2019-03-10T08:13:07.587Z,21.33
2019-03-10T08:15:53.782Z,35.30
2019-03-10T08:18:27.404Z,27.37
2019-03-10T08:21:15.281Z,27.10
2019-03-10T08:24:05.408Z,25.90
2019-03-10T08:26:45.531Z,30.77
2019-03-10T08:29:28.317Z,23.07
2019-03-10T08:32:05.153Z,28.73
2019-03-10T08:34:38.823Z,23.45
2019-03-10T08:37:15.692Z,26.82
2019-03-10T08:39:46.537Z,31.55
2019-03-10T08:42:20.569Z,32.25
2019-03-10T08:44:52.894Z,32.90
2019-03-10T08:47:24.818Z,31.17
2019-03-10T08:50:01.523Z,38.23
2019-03-10T08:52:34.839Z,38.13
2019-03-10T08:55:07.592Z,35.03
2019-03-10T09:00:15.537Z,33.18
2019-03-10T09:02:52.536Z,29.87
2019-03-10T09:05:23.339Z,35.05
2019-03-10T09:08:00.284Z,29.87
2019-03-10T09:10:37.093Z,35.03
2019-03-10T09:13:10.700Z,32.28
2019-03-10T09:15:41.599Z,39.67
2019-03-10T09:18:13.982Z,24.92
2019-03-10T09:20:47.505Z,28.73
2019-03-10T09:23:21.346Z,34.35
2019-03-10T09:25:52.149Z,32.73
2019-03-10T09:28:22.989Z,27.93
2019-03-10T09:30:53.875Z,31.90
2019-03-10T09:33:27.780Z,31.57
2019-03-10T09:36:01.700Z,38.20
2019-03-10T09:38:39.849Z,39.33
2019-03-10T09:41:19.747Z,47.93
2019-03-10T09:44:05.915Z,47.17
2019-03-10T09:46:53.407Z,41.25
2019-03-10T09:49:27.194Z,45.30
2019-03-10T09:52:14.353Z,47.78
2019-03-10T09:55:04.098Z,42.88
2019-03-10T09:57:40.586Z,46.35
2019-03-10T10:00:12.918Z,63.23
2019-03-10T10:02:49.606Z,56.83
2019-03-10T10:05:23.490Z,49.30
2019-03-10T10:08:03.551Z,55.12
2019-03-10T10:10:34.462Z,46.37
2019-03-10T10:13:20.015Z,41.90
2019-03-10T10:16:02.704Z,58.50
2019-03-10T10:18:33.530Z,43.95
2019-03-10T10:21:16.476Z,58.15
2019-03-10T10:23:50.217Z,46.55
2019-03-10T10:26:30.708Z,42.62
2019-03-10T10:29:08.455Z,41.02
2019-03-10T10:31:43.896Z,48.80
2019-03-10T10:34:17.300Z,47.10
2019-03-10T10:36:51.397Z,43.98
2019-03-10T10:39:22.213Z,61.30
2019-03-10T10:41:59.059Z,46.55
2019-03-10T10:44:30.024Z,47.80
2019-03-10T10:47:18.843Z,47.70
2019-03-10T10:49:49.658Z,39.05
2019-03-10T10:52:23.470Z,46.68
2019-03-10T10:54:54.432Z,47.35
2019-03-10T10:57:27.982Z,42.70
2019-03-10T11:00:04.619Z,51.28
2019-03-10T11:02:38.377Z,58.38
2019-03-10T11:05:09.874Z,54.63
2019-03-10T11:07:40.889Z,63.85
2019-03-10T11:10:24.696Z,44.00
2019-03-10T11:12:58.457Z,58.20
2019-03-10T11:15:31.977Z,71.10
2019-03-10T11:18:09.488Z,57.83
2019-03-10T11:20:38.104Z,57.93
2019-03-10T11:23:08.954Z,57.73
2019-03-10T11:25:39.901Z,59.73
2019-03-10T11:28:15.069Z,50.90
2019-03-10T11:30:49.043Z,51.20
2019-03-10T11:33:28.964Z,42.33
2019-03-10T11:36:15.980Z,54.83
2019-03-10T11:39:02.788Z,53.17
2019-03-10T11:41:37.948Z,52.67
2019-03-10T11:44:11.471Z,36.05
2019-03-10T11:46:58.363Z,29.90
2019-03-10T11:49:34.983Z,41.58
2019-03-10T11:52:05.803Z,58.70
2019-03-10T11:54:53.110Z,39.08
2019-03-10T11:57:29.722Z,42.90
2019-03-10T12:00:16.536Z,35.95
2019-03-10T12:03:03.505Z,31.45
2019-03-10T12:05:34.453Z,24.32
2019-03-10T12:08:14.346Z,16.57
2019-03-10T12:10:45.166Z,18.50
2019-03-10T12:13:14.499Z,22.02
2019-03-10T12:15:43.746Z,15.55
2019-03-10T12:18:12.952Z,20.12
2019-03-10T12:20:42.197Z,18.52
2019-03-10T12:23:11.460Z,19.42
2019-03-10T12:25:40.657Z,22.00
2019-03-10T12:28:09.836Z,21.30
2019-03-10T12:30:39.076Z,23.35
2019-03-10T12:33:08.264Z,15.95
2019-03-10T12:35:37.478Z,23.60
2019-03-10T12:38:06.725Z,22.02
2019-03-10T12:40:35.974Z,15.85
2019-03-10T12:43:05.176Z,22.42
2019-03-10T12:45:34.332Z,27.55
2019-03-10T12:48:03.546Z,20.43
2019-03-10T12:50:32.796Z,10.30
2019-03-10T12:53:02.033Z,26.68
2019-03-10T12:55:31.193Z,21.30
2019-03-10T12:58:00.375Z,9.70
2019-03-10T13:00:31.183Z,22.60
2019-03-10T13:03:00.441Z,16.55
2019-03-10T13:05:29.667Z,15.32
2019-03-10T13:07:58.946Z,21.20
2019-03-10T13:10:28.157Z,21.30
2019-03-10T13:12:57.391Z,27.25
2019-03-10T13:15:26.605Z,26.02
2019-03-10T13:17:55.973Z,24.72
2019-03-10T13:20:28.479Z,19.90
2019-03-10T13:22:56.093Z,15.45
2019-03-10T13:25:25.280Z,25.17
2019-03-10T13:27:54.553Z,27.10
2019-03-10T13:30:23.797Z,22.55
2019-03-10T13:32:53.061Z,25.27
2019-03-10T13:35:22.348Z,23.35
2019-03-10T13:37:51.619Z,14.23
2019-03-10T13:40:20.871Z,13.93
2019-03-10T13:42:50.135Z,10.60
2019-03-10T13:45:19.686Z,8.35
2019-03-10T13:47:49.955Z,13.88
2019-03-10T13:50:19.153Z,9.45
2019-03-10T13:52:48.339Z,9.88
2019-03-10T13:55:17.555Z,10.98
2019-03-10T13:57:47.211Z,9.55
2019-03-10T14:00:22.415Z,10.20
2019-03-10T14:02:51.755Z,8.43
2019-03-10T14:05:20.946Z,6.78
2019-03-10T14:07:50.277Z,3.90
2019-03-10T14:10:19.533Z,3.62
2019-03-10T14:12:50.212Z,4.12
2019-03-10T14:15:19.475Z,5.97
2019-03-10T14:17:48.728Z,4.28
2019-03-10T14:20:19.557Z,6.40
2019-03-10T14:22:48.748Z,6.80
2019-03-10T14:25:18.064Z,7.65
2019-03-10T14:27:47.245Z,6.60
2019-03-10T14:30:17.693Z,7.15
2019-03-10T14:32:48.665Z,5.95
2019-03-10T14:35:17.928Z,6.70
2019-03-10T14:37:47.162Z,3.80
2019-03-10T14:40:17.586Z,2.40
2019-03-10T14:42:46.765Z,3.50
2019-03-10T14:45:17.009Z,5.83
2019-03-10T14:47:46.431Z,4.35
2019-03-10T14:50:17.793Z,6.37
2019-03-10T14:52:47.018Z,4.67
2019-03-10T14:55:18.542Z,6.25
2019-03-10T14:57:48.694Z,5.40
2019-03-10T15:00:23.901Z,1.85
2019-03-10T15:02:53.195Z,5.67
2019-03-10T15:05:22.497Z,3.42
2019-03-10T15:07:53.333Z,4.40
2019-03-10T15:10:22.585Z,4.97
2019-03-10T15:12:51.778Z,5.67
2019-03-10T15:15:22.936Z,5.85
2019-03-10T15:17:52.420Z,4.47
2019-03-10T15:20:22.103Z,5.10
2019-03-10T15:22:51.441Z,2.40
2019-03-10T15:25:21.727Z,6.12
2019-03-10T15:27:51.692Z,2.80
2019-03-10T15:30:24.135Z,6.85
2019-03-10T15:32:53.390Z,6.28
2019-03-10T15:35:22.575Z,4.67
2019-03-10T15:37:51.802Z,2.87
2019-03-10T15:40:22.604Z,4.58
2019-03-10T15:42:51.848Z,3.50
2019-03-10T15:45:21.112Z,8.00
2019-03-10T15:47:50.491Z,7.55
2019-03-10T15:50:23.780Z,4.20
2019-03-10T15:52:54.415Z,7.17
2019-03-10T15:55:24.714Z,5.87
2019-03-10T15:57:54.054Z,12.25
2019-03-10T16:00:25.452Z,11.12
2019-03-10T16:02:54.695Z,7.25
2019-03-10T16:05:24.150Z,9.10
2019-03-10T16:07:53.325Z,10.85
2019-03-10T16:10:23.331Z,9.73
2019-03-10T16:12:53.476Z,5.08
2019-03-10T16:15:30.396Z,4.33
2019-03-10T16:17:59.640Z,8.73
2019-03-10T16:20:28.991Z,10.98
2019-03-10T16:22:58.201Z,7.70
2019-03-10T16:25:29.355Z,7.90
2019-03-10T16:27:58.536Z,11.38
2019-03-10T16:30:28.675Z,9.30
2019-03-10T16:32:57.917Z,12.10
2019-03-10T16:35:28.293Z,10.75
2019-03-10T16:37:57.526Z,12.78
2019-03-10T16:40:26.723Z,8.43
2019-03-10T16:42:55.899Z,12.93
2019-03-10T16:45:28.525Z,16.90
2019-03-10T16:47:57.997Z,5.97
2019-03-10T16:50:28.540Z,13.05
2019-03-10T16:52:57.768Z,9.45
2019-03-10T16:55:27.012Z,10.60
2019-03-10T16:57:56.182Z,18.02
2019-03-10T17:00:25.468Z,7.45
2019-03-10T17:02:54.695Z,5.00
2019-03-10T17:05:23.948Z,5.60
2019-03-10T17:07:53.111Z,12.45
2019-03-10T17:10:23.559Z,5.33
2019-03-10T17:12:52.843Z,10.25
2019-03-10T17:15:25.488Z,8.85
2019-03-10T17:17:54.709Z,9.20
2019-03-10T17:20:24.935Z,10.90
2019-03-10T17:22:54.197Z,6.90
2019-03-10T17:25:23.450Z,12.53
2019-03-10T17:27:52.696Z,9.93
2019-03-10T17:30:26.046Z,11.80
2019-03-10T17:32:55.258Z,7.97
2019-03-10T17:35:24.416Z,14.10
2019-03-10T17:37:53.688Z,8.55
2019-03-10T17:40:25.873Z,17.23
2019-03-10T17:42:55.065Z,15.32
2019-03-10T17:45:25.359Z,14.20
2019-03-10T17:47:54.612Z,14.38
2019-03-10T17:50:23.806Z,18.23
2019-03-10T17:52:53.112Z,13.50
2019-03-10T17:55:23.019Z,14.80
2019-03-10T17:57:52.335Z,8.85
2019-03-10T18:00:26.317Z,11.18
2019-03-10T18:02:55.600Z,14.20
2019-03-10T18:05:24.767Z,16.12
2019-03-10T18:07:55.592Z,16.07
2019-03-10T18:10:25.749Z,10.63
2019-03-10T18:12:55.033Z,13.78
2019-03-10T18:15:24.385Z,17.05
2019-03-10T18:17:53.608Z,18.32
2019-03-10T18:20:23.838Z,13.93
2019-03-10T18:22:53.226Z,13.55
2019-03-10T18:25:22.605Z,16.52
2019-03-10T18:27:51.968Z,15.30
2019-03-10T18:30:25.594Z,8.95
2019-03-10T18:32:55.221Z,9.88
2019-03-10T18:35:27.260Z,6.62
2019-03-10T18:37:58.023Z,9.35
2019-03-10T18:40:28.023Z,8.60
2019-03-10T18:42:57.360Z,11.18
2019-03-10T18:45:26.600Z,11.20
2019-03-10T18:47:55.833Z,10.55
2019-03-10T18:50:26.060Z,10.58
2019-03-10T18:52:56.331Z,17.30
2019-03-10T18:55:25.689Z,18.30
2019-03-10T18:57:54.956Z,19.02
2019-03-10T19:00:31.523Z,13.48
2019-03-10T19:03:01.073Z,10.48
2019-03-10T19:05:30.369Z,16.67
2019-03-10T19:07:59.905Z,17.60
2019-03-10T19:10:29.151Z,12.18
2019-03-10T19:12:58.484Z,22.60
2019-03-10T19:15:28.609Z,22.65
2019-03-10T19:17:57.840Z,19.52
2019-03-10T19:20:27.062Z,14.98
2019-03-10T19:22:56.251Z,18.57
2019-03-10T19:25:25.469Z,19.25
2019-03-10T19:27:54.654Z,23.95
2019-03-10T19:30:24.608Z,19.50
2019-03-10T19:32:54.002Z,9.38
2019-03-10T19:35:23.562Z,26.20
2019-03-10T19:37:52.882Z,18.25
2019-03-10T19:40:23.428Z,16.90
2019-03-10T19:42:53.045Z,15.85
2019-03-10T19:45:23.803Z,16.17
2019-03-10T19:47:54.900Z,12.05
2019-03-10T19:50:27.626Z,12.40
2019-03-10T19:52:57.396Z,18.67
2019-03-10T19:55:26.904Z,9.30
2019-03-10T19:57:56.284Z,18.77
2019-03-10T20:00:27.295Z,12.33
2019-03-10T20:02:57.110Z,12.80
2019-03-10T20:05:26.540Z,15.48
2019-03-10T20:07:56.683Z,13.50
2019-03-10T20:10:25.980Z,13.48
2019-03-10T20:12:55.383Z,18.62
2019-03-10T20:15:28.776Z,16.15
2019-03-10T20:17:59.591Z,35.70
2019-03-10T20:20:30.630Z,21.00
2019-03-10T20:23:01.122Z,23.15
2019-03-10T20:25:31.387Z,20.88
2019-03-10T20:28:00.734Z,20.95
2019-03-10T20:30:31.197Z,19.62
2019-03-10T20:33:00.412Z,17.73
2019-03-10T20:35:30.491Z,23.32
2019-03-10T20:37:59.782Z,22.95
2019-03-10T20:40:29.504Z,16.55
2019-03-10T20:42:58.797Z,13.08
2019-03-10T20:45:29.711Z,21.50
2019-03-10T20:47:59.284Z,15.48
2019-03-10T20:50:28.467Z,17.98
2019-03-10T20:52:57.899Z,13.08
2019-03-10T20:55:27.147Z,10.85
2019-03-10T20:57:56.561Z,17.52
2019-03-10T21:00:29.757Z,12.95
2019-03-10T21:02:59.389Z,13.45
2019-03-10T21:05:28.649Z,12.28
2019-03-10T21:07:57.989Z,14.38
2019-03-10T21:10:40.013Z,8.35
2019-03-10T21:13:09.264Z,13.40
2019-03-10T21:15:38.664Z,15.75
2019-03-10T21:18:07.889Z,15.15
2019-03-10T21:20:37.294Z,13.95
2019-03-10T21:23:08.350Z,12.55
2019-03-10T21:25:37.547Z,17.85
2019-03-10T21:28:08.548Z,15.05
2019-03-10T21:30:37.938Z,13.83
2019-03-10T21:33:07.268Z,19.98
2019-03-10T21:35:36.565Z,12.78
2019-03-10T21:38:05.868Z,12.50
2019-03-10T21:40:35.152Z,14.68
2019-03-10T21:43:04.469Z,15.10
2019-03-10T21:45:33.957Z,15.30
2019-03-10T21:48:04.765Z,15.80
2019-03-10T21:50:34.039Z,12.43
2019-03-10T21:53:03.293Z,15.60
2019-03-10T21:55:32.555Z,15.05
2019-03-10T21:58:02.121Z,21.55
2019-03-10T22:00:31.323Z,17.90
2019-03-10T22:03:00.631Z,16.73
2019-03-10T22:05:29.883Z,19.07
2019-03-10T22:07:59.157Z,12.03
2019-03-10T22:10:28.474Z,16.60
2019-03-10T22:12:57.771Z,15.32
2019-03-10T22:15:27.334Z,18.62
2019-03-10T22:17:56.608Z,17.67
2019-03-10T22:20:27.622Z,13.70
2019-03-10T22:22:56.962Z,19.40
2019-03-10T22:25:27.057Z,14.40
2019-03-10T22:27:57.926Z,18.73
2019-03-10T22:30:27.694Z,16.97
2019-03-10T22:32:56.988Z,18.02
2019-03-10T22:35:26.264Z,17.73
2019-03-10T22:37:55.488Z,10.68
2019-03-10T22:40:24.782Z,10.58
2019-03-10T22:42:53.999Z,9.98
2019-03-10T22:45:23.208Z,10.72
2019-03-10T22:47:52.497Z,10.85
2019-03-10T22:50:21.713Z,11.57
2019-03-10T22:52:51.049Z,14.78
2019-03-10T22:55:20.372Z,8.23
2019-03-10T22:57:49.569Z,7.00
2019-03-10T23:00:24.981Z,7.47
2019-03-10T23:02:55.790Z,6.05
2019-03-10T23:05:24.979Z,1.75
2019-03-10T23:07:54.273Z,2.70
2019-03-10T23:10:23.484Z,3.02
2019-03-10T23:12:52.839Z,1.80
2019-03-10T23:15:22.140Z,1.70
2019-03-10T23:17:51.575Z,1.47
2019-03-10T23:20:21.101Z,4.22
2019-03-10T23:22:50.594Z,3.50
2019-03-10T23:25:20.060Z,4.00
2019-03-10T23:27:49.318Z,2.00
2019-03-10T23:30:19.165Z,2.20
2019-03-10T23:32:48.456Z,3.20
2019-03-10T23:35:17.667Z,4.45
2019-03-10T23:37:46.905Z,4.80
2019-03-10T23:40:17.330Z,2.77
2019-03-10T23:42:46.786Z,2.55
2019-03-10T23:45:17.006Z,6.42
2019-03-10T23:47:47.019Z,7.90
2019-03-10T23:50:18.915Z,4.97
2019-03-10T23:52:48.158Z,5.97
2019-03-10T23:55:18.990Z,4.95
2019-03-10T23:57:48.167Z,9.40
